Time;durP1;ratioP1;P1;durP2;ratioP2;P2;SDS_P1;SDS_P2;PMS_P1;PMS_P2;Temp;Humidity;BMP_temperature;BMP_pressure;BME280_temperature;BME280_humidity;BME280_pressure;Samples;Min_cycle;Max_cycle;Signal;HPM_P1;HPM_P2
2021/10/29 00:01:52;;;;;;;0.20;0.20;;;;;;;6.12;100.00;100666.16;5064499;28;20408;-80
2021/10/29 00:04:25;;;;;;;0.20;0.20;;;;;;;6.40;100.00;100691.38;5073073;28;20056;-80
2021/10/29 00:06:59;;;;;;;0.20;0.20;;;;;;;6.32;100.00;100697.22;5084384;28;20452;-81
2021/10/29 00:09:34;;;;;;;0.20;0.20;;;;;;;6.27;100.00;100685.25;5071518;28;20044;-80
2021/10/29 00:12:09;;;;;;;0.20;0.20;;;;;;;6.28;100.00;100684.19;5069110;28;20066;-80
2021/10/29 00:14:42;;;;;;;0.20;0.20;;;;;;;6.27;100.00;100693.38;5071834;28;20044;-80
2021/10/29 00:17:15;;;;;;;0.22;0.22;;;;;;;6.23;100.00;100681.44;5070783;28;20416;-83
2021/10/29 00:19:49;;;;;;;0.10;0.10;;;;;;;6.28;100.00;100694.19;5071064;28;20412;-81
2021/10/29 00:22:22;;;;;;;0.28;0.28;;;;;;;6.24;100.00;100690.34;5069862;28;20060;-81
2021/10/29 00:24:51;;;;;;;0.20;0.20;;;;;;;6.21;100.00;100693.56;5063062;28;20409;-81
2021/10/29 00:27:25;;;;;;;0.20;0.20;;;;;;;6.23;100.00;100704.94;5072897;28;20044;-80
2021/10/29 00:29:58;;;;;;;0.20;0.20;;;;;;;6.22;100.00;100696.00;5065020;28;20044;-81
2021/10/29 00:32:31;;;;;;;0.20;0.20;;;;;;;6.21;100.00;100696.25;5070515;28;20064;-81
2021/10/29 00:35:06;;;;;;;0.22;0.22;;;;;;;6.15;100.00;100700.78;5070843;28;20055;-80
2021/10/29 00:37:40;;;;;;;0.20;0.20;;;;;;;6.18;100.00;100699.47;5071582;28;20060;-80
2021/10/29 00:40:16;;;;;;;0.28;0.28;;;;;;;6.08;100.00;100694.75;5069407;28;20040;-81
2021/10/29 00:42:44;;;;;;;0.20;0.20;;;;;;;6.18;100.00;100708.38;5065042;28;20049;-80
2021/10/29 00:45:17;;;;;;;0.10;0.10;;;;;;;6.13;100.00;100703.72;5071074;28;20056;-80
2021/10/29 00:47:52;;;;;;;0.30;0.30;;;;;;;6.13;100.00;100698.31;5071341;28;20055;-80
2021/10/29 00:50:21;;;;;;;0.30;0.30;;;;;;;6.06;100.00;100694.16;5083444;28;20059;-80
2021/10/29 00:52:55;;;;;;;0.20;0.20;;;;;;;6.04;100.00;100710.63;5072603;28;20045;-80
2021/10/29 00:55:25;;;;;;;0.20;0.20;;;;;;;6.03;100.00;100703.56;5067932;28;20067;-80
2021/10/29 00:57:58;;;;;;;0.17;0.17;;;;;;;6.00;100.00;100703.28;5065176;28;20051;-81
2021/10/29 01:00:32;;;;;;;0.20;0.20;;;;;;;5.98;100.00;100708.09;5064536;28;20488;-82
2021/10/29 01:03:05;;;;;;;0.20;0.20;;;;;;;5.89;100.00;100713.06;5070152;28;20427;-79
2021/10/29 01:05:39;;;;;;;0.20;0.20;;;;;;;5.90;100.00;100707.41;5071101;28;20052;-80
2021/10/29 01:08:13;;;;;;;0.20;0.20;;;;;;;5.90;100.00;100707.41;5072704;28;20048;-83
2021/10/29 01:10:42;;;;;;;0.20;0.20;;;;;;;5.79;100.00;100716.44;5070655;28;20069;-81
2021/10/29 01:13:10;;;;;;;0.20;0.20;;;;;;;5.78;100.00;100710.19;5072614;28;21470;-80
2021/10/29 01:15:44;;;;;;;0.20;0.20;;;;;;;5.79;100.00;100711.03;5072185;28;20041;-80
2021/10/29 01:18:17;;;;;;;0.20;0.20;;;;;;;5.72;100.00;100716.59;5060745;28;20071;-80
2021/10/29 01:20:47;;;;;;;0.20;0.20;;;;;;;5.66;100.00;100722.97;5071691;28;20481;-80
2021/10/29 01:23:20;;;;;;;0.20;0.20;;;;;;;5.64;100.00;100706.22;5068905;28;20059;-80
2021/10/29 01:26:01;;;;;;;0.20;0.20;;;;;;;5.57;100.00;100711.78;5071285;28;20037;-80
2021/10/29 01:28:35;;;;;;;0.25;0.25;;;;;;;5.59;100.00;100711.53;5066803;28;20056;-81
2021/10/29 01:31:08;;;;;;;0.30;0.30;;;;;;;5.52;100.00;100706.28;5068817;28;20029;-79
2021/10/29 01:33:42;;;;;;;0.20;0.20;;;;;;;5.56;100.00;100712.03;5069841;28;20048;-80
2021/10/29 01:36:17;;;;;;;0.20;0.20;;;;;;;5.53;100.00;100718.72;5070069;28;20044;-80
2021/10/29 01:38:52;;;;;;;0.20;0.20;;;;;;;5.50;100.00;100713.81;5067255;28;20504;-81
2021/10/29 01:41:20;;;;;;;0.20;0.20;;;;;;;5.38;100.00;100700.41;5070084;28;20501;-80
2021/10/29 01:43:54;;;;;;;0.20;0.20;;;;;;;5.41;100.00;100708.03;5072009;28;20483;-80
2021/10/29 01:46:27;;;;;;;0.20;0.20;;;;;;;5.38;100.00;100699.59;5072117;28;20511;-80
2021/10/29 01:49:00;;;;;;;0.20;0.20;;;;;;;5.37;100.00;100701.47;5070835;28;20041;-80
2021/10/29 01:51:35;;;;;;;0.25;0.25;;;;;;;5.36;100.00;100701.69;5086433;28;20049;-80
2021/10/29 01:54:08;;;;;;;0.20;0.20;;;;;;;5.35;100.00;100705.47;5075636;28;20040;-80
2021/10/29 01:56:36;;;;;;;0.15;0.15;;;;;;;5.28;100.00;100692.16;5091075;28;20048;-80
2021/10/29 01:59:10;;;;;;;0.20;0.20;;;;;;;5.31;100.00;100688.16;5074329;28;20056;-80
2021/10/29 02:01:44;;;;;;;0.20;0.20;;;;;;;5.30;100.00;100692.69;5070555;28;20045;-81
2021/10/29 02:04:17;;;;;;;0.30;0.30;;;;;;;5.30;100.00;100690.00;5085244;28;20044;-80
2021/10/29 02:06:47;;;;;;;0.30;0.30;;;;;;;5.23;100.00;100700.16;5074162;28;20061;-79
2021/10/29 02:09:15;;;;;;;0.40;0.20;;;;;;;5.23;100.00;100709.06;5059859;28;20049;-80
2021/10/29 02:11:48;;;;;;;0.20;0.20;;;;;;;5.18;100.00;100691.94;5072265;28;20032;-81
2021/10/29 02:14:22;;;;;;;0.22;0.22;;;;;;;5.21;100.00;100697.69;5071144;28;20057;-79
2021/10/29 02:16:55;;;;;;;0.10;0.10;;;;;;;5.20;100.00;100698.75;5074373;28;20041;-80
2021/10/29 02:19:23;;;;;;;0.20;0.20;;;;;;;5.17;100.00;100693.03;5073092;28;20063;-81
2021/10/29 02:21:58;;;;;;;0.20;0.20;;;;;;;5.16;100.00;100683.31;5061387;28;20037;-81
2021/10/29 02:24:54;;;;;;;0.30;0.30;;;;;;;5.18;100.00;100682.00;5075377;28;20040;-80
2021/10/29 02:27:27;;;;;;;0.20;0.20;;;;;;;5.04;100.00;100651.81;5053612;28;20060;-80
2021/10/29 02:30:00;;;;;;;0.20;0.20;;;;;;;5.16;100.00;100669.81;5065114;28;20049;-81
2021/10/29 02:32:33;;;;;;;0.20;0.20;;;;;;;5.21;100.00;100656.41;5072243;28;20040;-82
2021/10/29 02:35:07;;;;;;;0.30;0.30;;;;;;;5.11;100.00;100663.28;5073502;28;20044;-80
2021/10/29 02:37:41;;;;;;;0.20;0.20;;;;;;;5.08;100.00;100666.47;5074760;28;20040;-80
2021/10/29 02:40:15;;;;;;;0.20;0.20;;;;;;;5.07;100.00;100664.81;5066656;28;20041;-84
2021/10/29 02:42:48;;;;;;;0.30;0.30;;;;;;;5.06;100.00;100676.66;5066063;28;20451;-80
2021/10/29 02:45:21;;;;;;;0.10;0.10;;;;;;;5.04;100.00;100672.56;5068992;28;20052;-81
2021/10/29 02:47:54;;;;;;;0.13;0.13;;;;;;;5.00;100.00;100668.72;5063338;28;20052;-80
2021/10/29 02:50:24;;;;;;;0.20;0.20;;;;;;;4.91;100.00;100652.94;5070479;28;20044;-81
2021/10/29 02:52:58;;;;;;;0.20;0.20;;;;;;;4.94;100.00;100651.63;5073677;28;20431;-80
2021/10/29 02:55:26;;;;;;;0.28;0.28;;;;;;;4.91;100.00;100655.63;5067521;28;20511;-81
2021/10/29 02:58:00;;;;;;;0.20;0.20;;;;;;;4.72;100.00;100619.16;5074749;28;20041;-82
2021/10/29 03:00:29;;;;;;;0.20;0.20;;;;;;;4.82;100.00;100634.69;5070222;28;20076;-82
2021/10/29 03:03:02;;;;;;;0.20;0.20;;;;;;;4.90;100.00;100642.38;5066031;28;20393;-82
2021/10/29 03:05:37;;;;;;;0.20;0.20;;;;;;;4.83;100.00;100634.44;5072906;28;20048;-81
2021/10/29 03:08:24;;;;;;;0.20;0.20;;;;;;;4.84;100.00;100638.78;5070432;28;20409;-82
2021/10/29 03:10:57;;;;;;;0.20;0.20;;;;;;;4.86;100.00;100627.75;5064128;28;20764;-80
2021/10/29 03:13:31;;;;;;;0.30;0.30;;;;;;;4.81;100.00;100628.50;5070013;28;20410;-80
2021/10/29 03:16:05;;;;;;;0.20;0.20;;;;;;;4.77;100.00;100625.44;5073013;28;20511;-81
2021/10/29 03:18:33;;;;;;;0.20;0.20;;;;;;;4.77;100.00;100633.53;5069730;28;20067;-82
2021/10/29 03:21:06;;;;;;;0.20;0.20;;;;;;;4.70;100.00;100629.38;5072361;28;20041;-81
2021/10/29 03:23:41;;;;;;;0.20;0.20;;;;;;;4.74;100.00;100630.53;5073920;28;20045;-80
2021/10/29 03:26:14;;;;;;;0.22;0.22;;;;;;;4.74;100.00;100631.34;5074264;28;20875;-80
2021/10/29 03:28:47;;;;;;;0.20;0.20;;;;;;;4.74;100.00;100633.22;5072248;28;20045;-80
2021/10/29 03:31:21;;;;;;;0.20;0.20;;;;;;;4.70;100.00;100634.75;5072019;28;20052;-82
2021/10/29 03:33:49;;;;;;;0.13;0.13;;;;;;;4.70;100.00;100635.56;5079134;28;20076;-80
2021/10/29 03:36:22;;;;;;;0.17;0.17;;;;;;;4.71;100.00;100639.06;5070571;28;20044;-81
2021/10/29 03:39:00;;;;;;;0.20;0.20;;;;;;;4.67;100.00;100641.44;5069800;28;20052;-81
2021/10/29 03:41:37;;;;;;;0.20;0.20;;;;;;;4.70;100.00;100645.56;5073884;28;20048;-80
2021/10/29 03:44:18;;;;;;;0.20;0.20;;;;;;;4.65;100.00;100640.06;5073674;28;20044;-80
2021/10/29 03:46:54;;;;;;;0.20;0.20;;;;;;;4.69;100.00;100643.91;5061047;28;20053;-80
2021/10/29 03:49:32;;;;;;;0.20;0.20;;;;;;;4.68;100.00;100637.72;5063757;28;20041;-83
2021/10/29 03:52:07;;;;;;;0.30;0.30;;;;;;;4.67;100.00;100646.84;5070898;28;20056;-80
2021/10/29 03:54:44;;;;;;;0.20;0.20;;;;;;;4.65;100.00;100643.56;5066464;28;20056;-81
2021/10/29 03:57:24;;;;;;;;;;;;;;;4.67;100.00;100638.75;5059285;28;20079;-80
2021/10/29 03:59:57;;;;;;;0.30;0.30;;;;;;;4.68;100.00;100650.34;5070376;28;20296;-80
2021/10/29 04:02:31;;;;;;;0.20;0.20;;;;;;;4.66;100.00;100645.19;5078704;28;20041;-80
2021/10/29 04:05:05;;;;;;;0.20;0.20;;;;;;;4.63;100.00;100648.38;5073416;28;20047;-80
2021/10/29 04:07:42;;;;;;;0.20;0.20;;;;;;;4.63;100.00;100650.25;5072147;28;20048;-80
2021/10/29 04:10:17;;;;;;;;;;;;;;;4.56;100.00;100642.31;5073295;28;20048;-80
2021/10/29 04:12:45;;;;;;;0.20;0.20;;;;;;;4.59;100.00;100648.03;5066365;28;19924;-81
2021/10/29 04:15:18;;;;;;;0.30;0.30;;;;;;;4.60;100.00;100636.22;5069515;28;20506;-81
2021/10/29 04:17:51;;;;;;;0.20;0.20;;;;;;;4.55;100.00;100640.69;5054117;28;20053;-81
2021/10/29 04:20:45;;;;;;;0.20;0.20;;;;;;;4.50;100.00;100643.28;5063794;28;20057;-80
2021/10/29 04:23:18;;;;;;;0.20;0.20;;;;;;;4.48;100.00;100648.91;5071820;28;20052;-80
2021/10/29 04:25:54;;;;;;;0.22;0.22;;;;;;;4.37;100.00;100631.72;5073011;28;20055;-80
2021/10/29 04:28:28;;;;;;;0.20;0.20;;;;;;;4.47;100.00;100643.75;5073912;28;20098;-81
2021/10/29 04:31:05;;;;;;;0.20;0.20;;;;;;;4.47;100.00;100630.28;5077018;28;20063;-83
2021/10/29 04:33:38;;;;;;;0.20;0.20;;;;;;;4.47;100.00;100632.97;5057922;28;20064;-80
2021/10/29 04:36:11;;;;;;;0.20;0.20;;;;;;;4.47;100.00;100641.88;5061196;28;20051;-80
2021/10/29 04:38:46;;;;;;;0.17;0.17;;;;;;;4.45;100.00;100629.69;5062187;28;20053;-80
2021/10/29 04:41:20;;;;;;;0.20;0.20;;;;;;;4.39;100.00;100629.63;5057657;28;20547;-80
2021/10/29 04:43:53;;;;;;;0.20;0.20;;;;;;;4.47;100.00;100627.59;5086971;28;20052;-80
2021/10/29 04:46:26;;;;;;;0.45;0.30;;;;;;;4.45;100.00;100625.16;5072943;28;20044;-80
2021/10/29 04:48:55;;;;;;;0.10;0.10;;;;;;;4.26;100.00;100611.84;5069039;28;20061;-81
2021/10/29 04:51:28;;;;;;;0.20;0.20;;;;;;;4.37;100.00;100622.81;5081568;28;20405;-81
2021/10/29 04:54:02;;;;;;;0.20;0.20;;;;;;;4.35;100.00;100625.75;5066940;28;20071;-80
2021/10/29 04:56:37;;;;;;;0.20;0.20;;;;;;;4.38;100.00;100622.59;5070550;28;20056;-80
2021/10/29 04:59:05;;;;;;;0.30;0.30;;;;;;;4.32;100.00;100626.22;5086754;28;20511;-81
2021/10/29 05:02:00;;;;;;;0.20;0.20;;;;;;;4.31;100.00;100624.59;5066546;28;20055;-82
2021/10/29 05:04:33;;;;;;;0.20;0.20;;;;;;;4.33;100.00;100621.66;5080945;28;20044;-80
2021/10/29 05:07:06;;;;;;;0.20;0.20;;;;;;;4.29;100.00;100620.50;5068843;28;20430;-80
2021/10/29 05:10:06;;;;;;;0.20;0.20;;;;;;;4.26;100.00;100622.59;5069208;28;20040;-80
2021/10/29 05:12:42;;;;;;;0.30;0.30;;;;;;;4.17;100.00;100601.69;5059702;28;20057;-80
2021/10/29 05:15:17;;;;;;;0.40;0.40;;;;;;;4.23;100.00;100616.91;5071372;28;20416;-80
2021/10/29 05:17:50;;;;;;;0.20;0.20;;;;;;;4.22;100.00;100613.38;5070364;28;20052;-81
2021/10/29 05:20:24;;;;;;;0.20;0.20;;;;;;;4.16;100.00;100611.66;5061059;28;20075;-80
2021/10/29 05:22:57;;;;;;;0.30;0.30;;;;;;;4.15;100.00;100615.38;5072445;28;20045;-81
2021/10/29 05:25:30;;;;;;;0.20;0.20;;;;;;;4.20;100.00;100612.00;5070797;28;20052;-81
2021/10/29 05:28:06;;;;;;;0.20;0.20;;;;;;;4.06;100.00;100600.66;5074053;28;20045;-80
2021/10/29 05:30:39;;;;;;;0.30;0.30;;;;;;;4.13;100.00;100614.81;5075559;28;20047;-81
2021/10/29 05:33:12;;;;;;;0.20;0.20;;;;;;;4.15;100.00;100615.38;5073576;28;20048;-80
2021/10/29 05:35:46;;;;;;;0.30;0.30;;;;;;;4.13;100.00;100611.28;5076211;28;20582;-80
2021/10/29 05:38:19;;;;;;;0.20;0.20;;;;;;;4.08;100.00;100602.06;5077525;28;20059;-80
2021/10/29 05:40:52;;;;;;;0.28;0.28;;;;;;;4.05;100.00;100599.84;5073265;28;20048;-79
2021/10/29 05:43:27;;;;;;;0.30;0.30;;;;;;;4.07;100.00;100610.38;5084769;28;20040;-81
2021/10/29 05:46:00;;;;;;;0.30;0.30;;;;;;;4.05;100.00;100607.94;5063151;28;20060;-80
2021/10/29 05:48:34;;;;;;;0.20;0.20;;;;;;;4.06;100.00;100609.56;5071660;28;20074;-79
2021/10/29 05:51:13;;;;;;;0.30;0.30;;;;;;;4.03;100.00;100618.13;5075084;28;20041;-80
2021/10/29 05:53:54;;;;;;;0.20;0.20;;;;;;;4.02;100.00;100623.72;5067853;28;20060;-80
2021/10/29 05:57:24;;;;;;;0.30;0.30;;;;;;;3.98;100.00;100611.78;5057086;28;20148;-79
2021/10/29 05:59:58;;;;;;;0.20;0.20;;;;;;;3.98;100.00;100626.09;5055377;28;20504;-82
2021/10/29 06:02:27;;;;;;;0.30;0.30;;;;;;;3.94;100.00;100619.53;5049948;28;20068;-80
2021/10/29 06:05:00;;;;;;;0.30;0.30;;;;;;;3.88;100.00;100621.31;5055940;28;20045;-80
2021/10/29 06:07:33;;;;;;;0.20;0.20;;;;;;;3.94;100.00;100629.50;5054856;28;20071;-81
2021/10/29 06:10:02;;;;;;;0.30;0.30;;;;;;;3.94;100.00;100624.13;5048904;28;20501;-81
2021/10/29 06:12:37;;;;;;;0.25;0.25;;;;;;;3.87;100.00;100624.25;5054132;28;20064;-80
2021/10/29 06:15:08;;;;;;;0.30;0.30;;;;;;;3.85;100.00;100621.78;5056242;28;20079;-84
2021/10/29 06:17:37;;;;;;;0.30;0.30;;;;;;;3.90;100.00;100621.06;5053577;28;20060;-82
2021/10/29 06:20:12;;;;;;;0.30;0.30;;;;;;;3.86;100.00;100611.84;5068630;28;20059;-80
2021/10/29 06:22:47;;;;;;;0.20;0.20;;;;;;;3.85;100.00;100616.41;5055495;28;20420;-81
2021/10/29 06:25:24;;;;;;;0.20;0.20;;;;;;;3.83;100.00;100613.13;5053152;28;20079;-82
2021/10/29 06:28:19;;;;;;;0.30;0.30;;;;;;;3.82;100.00;100594.50;5052965;28;20076;-80
2021/10/29 06:30:49;;;;;;;0.20;0.20;;;;;;;3.86;100.00;100609.13;5058348;28;20048;-82
2021/10/29 06:33:23;;;;;;;0.20;0.20;;;;;;;3.87;100.00;100613.47;5052776;28;20053;-82
2021/10/29 06:35:57;;;;;;;0.20;0.20;;;;;;;3.93;100.00;100617.91;5049957;28;20048;-81
2021/10/29 06:38:25;;;;;;;0.25;0.25;;;;;;;3.92;100.00;100610.88;5051443;28;20626;-82
2021/10/29 06:40:59;;;;;;;0.20;0.20;;;;;;;3.81;100.00;100612.56;5052928;28;20448;-84
2021/10/29 06:43:37;;;;;;;0.20;0.20;;;;;;;3.91;100.00;100614.63;5050283;28;20053;-82
2021/10/29 06:46:14;;;;;;;0.30;0.30;;;;;;;3.93;100.00;100620.59;5053764;28;20056;-81
2021/10/29 06:48:54;;;;;;;0.30;0.30;;;;;;;3.77;100.00;100602.47;5055232;28;20044;-83
2021/10/29 06:59:58;;;;;;;0.20;0.20;;;;;;;4.06;100.00;100625.72;5052955;28;20048;-86
2021/10/29 07:03:10;;;;;;;0.20;0.20;;;;;;;4.01;100.00;100612.16;5053186;28;20053;-81
2021/10/29 07:40:03;;;;;;;0.20;0.20;;;;;;;4.57;100.00;100625.91;5047419;28;20057;-82
2021/10/29 07:42:42;;;;;;;0.77;0.30;;;;;;;4.63;100.00;100637.59;5045211;28;20057;-83
2021/10/29 07:45:15;;;;;;;0.30;0.30;;;;;;;4.60;100.00;100624.63;5048211;28;20060;-80
2021/10/29 07:47:44;;;;;;;0.20;0.20;;;;;;;4.69;100.00;100639.31;5045105;28;20056;-82
2021/10/29 07:50:19;;;;;;;0.30;0.30;;;;;;;4.72;100.00;100628.06;5043631;28;20673;-82
2021/10/29 07:52:51;;;;;;;0.20;0.20;;;;;;;4.81;100.00;100630.38;5045542;28;20059;-80
2021/10/29 07:55:29;;;;;;;0.30;0.30;;;;;;;4.74;100.00;100609.75;5048261;28;20049;-83
2021/10/29 07:58:02;;;;;;;0.20;0.20;;;;;;;4.86;100.00;100622.34;5046967;28;20080;-82
2021/10/29 08:00:35;;;;;;;0.20;0.20;;;;;;;5.02;100.00;100628.84;5047407;28;20053;-82
2021/10/29 08:03:06;;;;;;;0.20;0.20;;;;;;;5.06;100.00;100622.72;5049854;28;20420;-82
2021/10/29 08:05:39;;;;;;;0.25;0.25;;;;;;;5.19;100.00;100620.75;5048338;28;20048;-84
2021/10/29 08:08:16;;;;;;;0.30;0.30;;;;;;;5.21;100.00;100616.75;5044269;28;20602;-83
2021/10/29 08:10:50;;;;;;;0.20;0.20;;;;;;;5.24;100.00;100608.16;5046076;28;20057;-84
2021/10/29 08:13:23;;;;;;;0.30;0.30;;;;;;;5.42;100.00;100617.88;5064565;28;20064;-82
2021/10/29 08:15:58;;;;;;;0.30;0.30;;;;;;;5.42;100.00;100617.06;5047613;28;20056;-84
2021/10/29 08:18:26;;;;;;;0.20;0.20;;;;;;;5.47;100.00;100622.56;5043520;28;20057;-84
2021/10/29 08:21:01;;;;;;;0.20;0.20;;;;;;;5.51;100.00;100621.00;5043473;28;20052;-83
2021/10/29 08:23:30;;;;;;;0.20;0.20;;;;;;;5.59;100.00;100612.47;5053952;28;20080;-84
2021/10/29 08:26:03;;;;;;;0.20;0.20;;;;;;;5.66;100.00;100622.28;5048187;28;20049;-82
2021/10/29 08:28:31;;;;;;;0.25;0.25;;;;;;;5.70;100.00;100618.81;5046083;28;20060;-80
2021/10/29 08:31:05;;;;;;;0.20;0.20;;;;;;;5.70;100.00;100601.81;5045656;28;20059;-84
2021/10/29 08:33:33;;;;;;;0.30;0.30;;;;;;;5.84;100.00;100619.31;5039975;28;20052;-80
2021/10/29 08:36:06;;;;;;;0.30;0.30;;;;;;;5.98;100.00;100618.94;5043299;28;20044;-82
2021/10/29 08:38:41;;;;;;;0.30;0.30;;;;;;;6.04;100.00;100613.34;5046439;28;20056;-84
2021/10/29 08:41:14;;;;;;;0.30;0.30;;;;;;;6.06;100.00;100611.25;5045651;28;20623;-83
2021/10/29 08:43:48;;;;;;;0.22;0.22;;;;;;;6.12;100.00;100612.13;5046884;28;20055;-84
2021/10/29 08:46:17;;;;;;;0.30;0.30;;;;;;;6.21;100.00;100607.06;5044584;28;20056;-83
2021/10/29 08:48:51;;;;;;;0.22;0.22;;;;;;;6.26;100.00;100605.25;5044405;28;20048;-80
2021/10/29 08:51:20;;;;;;;0.25;0.25;;;;;;;6.37;100.00;100611.59;5043355;28;21504;-82
2021/10/29 08:53:56;;;;;;;0.30;0.30;;;;;;;6.38;100.00;100607.81;5045695;28;20067;-83
2021/10/29 08:56:30;;;;;;;0.28;0.28;;;;;;;6.56;100.00;100605.81;5049337;28;20504;-82
2021/10/29 08:59:10;;;;;;;0.28;0.28;;;;;;;6.53;100.00;100596.38;5044962;28;20072;-82
2021/10/29 09:01:55;;;;;;;0.25;0.25;;;;;;;6.73;100.00;100611.16;5039768;28;20060;-82
2021/10/29 09:04:36;;;;;;;0.20;0.20;;;;;;;6.67;100.00;100602.19;5044770;28;20067;-83
2021/10/29 09:10:29;;;;;;;0.30;0.30;;;;;;;6.90;100.00;100605.63;5042791;28;20127;-81
2021/10/29 09:32:53;;;;;;;0.20;0.20;;;;;;;7.46;100.00;100595.22;5053719;28;20053;-84
2021/10/29 09:35:24;;;;;;;0.22;0.22;;;;;;;7.56;100.00;100572.81;5058486;28;20057;-82
2021/10/29 09:37:58;;;;;;;0.20;0.20;;;;;;;7.69;100.00;100579.63;5047522;28;20084;-81
2021/10/29 09:40:59;;;;;;;0.30;0.30;;;;;;;7.80;100.00;100575.91;5046172;28;20697;-81
2021/10/29 09:43:33;;;;;;;0.22;0.22;;;;;;;7.90;100.00;100563.47;5044617;28;20052;-81
2021/10/29 09:46:08;;;;;;;0.20;0.20;;;;;;;7.99;100.00;100562.69;5044607;28;21449;-83
2021/10/29 09:48:44;;;;;;;0.20;0.20;;;;;;;8.05;100.00;100565.44;5042271;28;20055;-80
2021/10/29 09:51:21;;;;;;;0.20;0.20;;;;;;;8.10;100.00;100562.75;5043377;28;20059;-81
2021/10/29 09:54:03;;;;;;;0.30;0.30;;;;;;;8.20;100.00;100564.69;5046702;28;20060;-82
2021/10/29 09:56:45;;;;;;;0.30;0.30;;;;;;;8.29;100.00;100560.38;5055385;28;20060;-84
2021/10/29 09:59:14;;;;;;;0.30;0.30;;;;;;;8.36;100.00;100560.13;5046270;28;20425;-80
2021/10/29 10:01:47;;;;;;;0.20;0.20;;;;;;;8.37;100.00;100561.72;5059110;28;20041;-81
2021/10/29 10:04:21;;;;;;;0.20;0.20;;;;;;;8.51;100.00;100563.69;5069995;28;20505;-81
2021/10/29 10:06:54;;;;;;;0.20;0.20;;;;;;;8.57;100.00;100561.81;5069530;28;20048;-80
2021/10/29 10:09:29;;;;;;;0.30;0.30;;;;;;;8.66;100.00;100557.47;5070116;28;20071;-80
2021/10/29 10:12:03;;;;;;;0.28;0.28;;;;;;;8.65;100.00;100538.75;5058886;28;20052;-80
2021/10/29 10:14:40;;;;;;;0.30;0.30;;;;;;;8.95;100.00;100550.69;5053381;28;20061;-83
2021/10/29 10:17:09;;;;;;;0.30;0.30;;;;;;;9.01;100.00;100555.03;5053259;28;20397;-82
2021/10/29 10:19:37;;;;;;;0.20;0.20;;;;;;;8.99;100.00;100551.78;5055773;28;20064;-81
2021/10/29 10:22:11;;;;;;;0.20;0.20;;;;;;;9.09;100.00;100549.06;5048836;28;20052;-81
2021/10/29 10:24:42;;;;;;;0.10;0.10;;;;;;;9.22;100.00;100536.81;5051055;28;20060;-83
2021/10/29 10:27:33;;;;;;;0.20;0.20;;;;;;;9.31;100.00;100535.19;5046507;28;20056;-81
2021/10/29 10:30:17;;;;;;;0.20;0.20;;;;;;;9.48;100.00;100539.50;5051786;28;20493;-84
2021/10/29 10:44:47;;;;;;;0.20;0.20;;;;;;;9.93;100.00;100526.84;5063838;28;20428;-82
2021/10/29 10:47:23;;;;;;;0.25;0.25;;;;;;;10.12;100.00;100518.03;5051832;28;20572;-85
2021/10/29 10:50:11;;;;;;;0.20;0.20;;;;;;;10.16;100.00;100511.75;5055526;28;20053;-80
2021/10/29 10:53:15;;;;;;;0.20;0.20;;;;;;;10.21;100.00;100513.63;5059917;28;20091;-82
2021/10/29 10:55:55;;;;;;;0.20;0.20;;;;;;;10.34;100.00;100514.91;5054729;28;20056;-84
2021/10/29 10:58:30;;;;;;;0.10;0.10;;;;;;;10.27;100.00;100498.09;5055130;28;20045;-81
2021/10/29 11:01:18;;;;;;;0.20;0.20;;;;;;;10.44;100.00;100500.44;5057738;28;20060;-81
2021/10/29 11:09:59;;;;;;;0.30;0.30;;;;;;;10.63;100.00;100508.75;5021607;28;20053;-83
2021/10/29 11:13:05;;;;;;;0.20;0.20;;;;;;;10.66;100.00;100487.22;5067710;28;20067;-82
2021/10/29 11:15:39;;;;;;;0.20;0.20;;;;;;;10.80;100.00;100498.25;5055248;28;20059;-81
2021/10/29 11:18:29;;;;;;;0.20;0.20;;;;;;;10.85;100.00;100497.41;5056356;28;20053;-83
2021/10/29 11:21:20;;;;;;;0.20;0.20;;;;;;;10.93;100.00;100490.53;5050545;28;20048;-81
2021/10/29 11:23:56;;;;;;;0.20;0.20;;;;;;;10.85;100.00;100492.78;5057395;28;20064;-81
2021/10/29 11:26:33;;;;;;;0.30;0.30;;;;;;;11.04;100.00;100489.31;5052277;28;20053;-84
2021/10/29 11:29:07;;;;;;;0.20;0.20;;;;;;;11.11;100.00;100481.63;5055301;28;20053;-82
2021/10/29 11:31:43;;;;;;;0.20;0.20;;;;;;;11.27;100.00;100471.38;5049721;28;20041;-82
2021/10/29 11:34:14;;;;;;;0.20;0.20;;;;;;;11.25;100.00;100470.84;5046803;28;20068;-84
2021/10/29 11:36:52;;;;;;;0.23;0.23;;;;;;;11.32;100.00;100473.22;5053748;28;20060;-84
2021/10/29 11:39:25;;;;;;;;;;;;;;;11.36;100.00;100466.91;5047259;28;20064;-82
2021/10/29 11:41:58;;;;;;;0.20;0.20;;;;;;;11.28;100.00;100470.25;5066373;28;20407;-82
2021/10/29 11:44:32;;;;;;;0.30;0.30;;;;;;;11.32;100.00;100465.84;5047612;28;20071;-83
2021/10/29 11:47:06;;;;;;;0.20;0.20;;;;;;;11.37;100.00;100459.56;5050907;28;20052;-84
2021/10/29 11:49:41;;;;;;;0.20;0.20;;;;;;;11.64;100.00;100456.25;5049321;28;20524;-82
2021/10/29 11:52:11;;;;;;;0.20;0.20;;;;;;;11.68;100.00;100468.19;5052368;28;20064;-81
2021/10/29 11:54:42;;;;;;;0.25;0.25;;;;;;;11.62;100.00;100458.44;5067687;28;20084;-82
2021/10/29 11:57:24;;;;;;;0.30;0.30;;;;;;;11.76;100.00;100455.00;5048756;28;20493;-83
2021/10/29 12:05:59;;;;;;;0.20;0.20;;;;;;;11.90;100.00;100443.06;5055275;28;20052;-82
2021/10/29 12:08:37;;;;;;;0.20;0.20;;;;;;;11.87;100.00;100445.56;5065657;28;20072;-81
2021/10/29 12:11:12;;;;;;;0.20;0.20;;;;;;;11.88;100.00;100439.81;5050304;28;20060;-83
2021/10/29 12:13:46;;;;;;;0.30;0.30;;;;;;;11.99;100.00;100435.06;5051498;28;20056;-85
2021/10/29 12:16:21;;;;;;;0.20;0.20;;;;;;;12.02;100.00;100437.19;5051101;28;20056;-81
2021/10/29 12:18:55;;;;;;;0.20;0.20;;;;;;;12.02;100.00;100434.47;5052572;28;20056;-81
2021/10/29 12:21:26;;;;;;;0.20;0.20;;;;;;;11.97;100.00;100425.53;5052285;28;20413;-83
2021/10/29 12:23:56;;;;;;;0.38;0.20;;;;;;;11.98;100.00;100427.19;5051582;28;20718;-81
2021/10/29 12:26:36;;;;;;;0.28;0.28;;;;;;;11.97;100.00;100426.34;5051682;28;20072;-83
2021/10/29 12:29:12;;;;;;;0.20;0.20;;;;;;;11.98;100.00;100422.53;5047061;28;20061;-81
2021/10/29 12:32:24;;;;;;;0.30;0.30;;;;;;;11.99;100.00;100418.69;5050667;28;20056;-82
2021/10/29 12:38:26;;;;;;;0.20;0.20;;;;;;;11.98;100.00;100422.53;5047546;28;20048;-84
2021/10/29 12:59:04;;;;;;;0.20;0.20;;;;;;;11.78;100.00;100418.16;5050369;28;20052;-82
2021/10/29 13:01:37;;;;;;;0.22;0.22;;;;;;;11.87;100.00;100421.03;5051459;28;20056;-83
2021/10/29 13:04:14;;;;;;;0.20;0.20;;;;;;;11.88;100.00;100414.47;5052609;28;20063;-81
2021/10/29 13:06:55;;;;;;;0.13;0.13;;;;;;;11.87;100.00;100407.38;5052673;28;20052;-81
2021/10/29 13:09:25;;;;;;;0.20;0.20;;;;;;;11.90;100.00;100402.16;5049983;28;20056;-84
2021/10/29 13:12:03;;;;;;;0.20;0.20;;;;;;;11.95;100.00;100414.13;5050746;28;20053;-82
2021/10/29 13:14:36;;;;;;;0.20;0.20;;;;;;;11.94;100.00;100396.13;5050589;28;20057;-81
2021/10/29 13:17:07;;;;;;;0.20;0.20;;;;;;;11.99;100.00;100388.69;5046253;28;20064;-81
2021/10/29 13:20:05;;;;;;;0.20;0.20;;;;;;;12.05;100.00;100401.13;5049535;28;20053;-83
2021/10/29 13:23:03;;;;;;;0.20;0.20;;;;;;;12.04;100.00;100374.97;5053979;28;20057;-84
2021/10/29 13:26:06;;;;;;;0.20;0.20;;;;;;;12.15;100.00;100388.44;5051671;28;20057;-81
2021/10/29 13:28:47;;;;;;;0.20;0.20;;;;;;;12.21;100.00;100387.28;5048281;28;20049;-82
2021/10/29 13:34:28;;;;;;;0.30;0.30;;;;;;;12.14;100.00;100382.19;5048702;28;20056;-83
2021/10/29 13:37:13;;;;;;;0.20;0.20;;;;;;;12.16;100.00;100379.16;5046635;28;20059;-81
2021/10/29 13:51:12;;;;;;;0.20;0.20;;;;;;;12.07;100.00;100366.19;5032258;28;20057;-82
2021/10/29 13:53:54;;;;;;;0.25;0.25;;;;;;;12.14;100.00;100363.09;5058072;28;21400;-82
2021/10/29 13:56:36;;;;;;;0.30;0.30;;;;;;;12.12;100.00;100359.03;5054015;28;20061;-81
2021/10/29 13:59:25;;;;;;;0.28;0.28;;;;;;;12.08;100.00;100358.81;5057907;28;20068;-82
2021/10/29 14:30:27;;;;;;;0.20;0.20;;;;;;;11.27;100.00;100337.06;5042808;28;20068;-81
2021/10/29 14:33:04;;;;;;;0.22;0.22;;;;;;;11.30;100.00;100325.63;5052878;28;20060;-85
2021/10/29 14:35:40;;;;;;;0.30;0.30;;;;;;;11.29;100.00;100330.25;5051088;28;20516;-82
2021/10/29 14:38:19;;;;;;;0.30;0.30;;;;;;;11.26;100.00;100327.31;5052398;28;20079;-82